createdAt,value
2022-12-28T00:04:15.114Z,4.36
2022-12-28T00:09:17.864Z,4.36
2022-12-28T00:14:22.096Z,4.40
2022-12-28T00:19:24.799Z,4.51
2022-12-28T00:24:27.637Z,4.44
2022-12-28T00:29:31.653Z,4.43
2022-12-28T00:34:35.050Z,4.37
2022-12-28T00:39:37.734Z,4.38
2022-12-28T00:44:42.638Z,4.39
2022-12-28T00:49:45.368Z,4.37
2022-12-28T00:54:48.085Z,4.40
2022-12-28T00:59:52.162Z,4.50
2022-12-28T01:04:54.859Z,4.56
2022-12-28T01:09:57.512Z,4.63
2022-12-28T01:15:01.531Z,4.67
2022-12-28T01:20:04.813Z,4.69
2022-12-28T01:25:08.020Z,4.76
2022-12-28T01:30:16.125Z,4.80
2022-12-28T01:35:18.824Z,4.79
2022-12-28T01:40:21.549Z,4.83
2022-12-28T01:45:25.697Z,4.87
2022-12-28T01:50:29.644Z,4.97
2022-12-28T01:55:34.491Z,4.94
2022-12-28T02:00:38.740Z,4.96
2022-12-28T02:05:43.593Z,4.94
2022-12-28T02:10:47.824Z,4.99
2022-12-28T02:15:52.771Z,4.99
2022-12-28T02:21:17.689Z,5.08
2022-12-28T02:26:49.920Z,5.00
2022-12-28T02:32:00.435Z,5.02
2022-12-28T02:37:08.276Z,4.94
2022-12-28T02:42:11.286Z,5.03
2022-12-28T02:47:34.022Z,5.05
2022-12-28T02:53:04.873Z,5.02
2022-12-28T02:58:29.847Z,5.07
2022-12-28T03:03:40.579Z,5.08
2022-12-28T03:08:48.134Z,5.15
2022-12-28T03:13:56.214Z,5.17
2022-12-28T03:19:20.547Z,5.26
2022-12-28T03:24:41.296Z,5.20
2022-12-28T03:30:06.751Z,5.34
2022-12-28T03:35:12.312Z,5.40
2022-12-28T03:40:21.576Z,5.41
2022-12-28T03:45:44.884Z,5.56
2022-12-28T03:50:53.302Z,5.50
2022-12-28T03:56:07.066Z,5.66
2022-12-28T04:01:11.511Z,5.56
2022-12-28T04:06:19.279Z,5.68
2022-12-28T04:11:22.122Z,5.83
2022-12-28T04:16:29.003Z,5.91
2022-12-28T04:21:33.325Z,5.82
2022-12-28T04:26:36.777Z,5.78
2022-12-28T04:31:39.519Z,5.89
2022-12-28T04:36:47.651Z,5.97
2022-12-28T04:41:54.024Z,6.02
2022-12-28T04:46:56.852Z,5.95
2022-12-28T04:52:00.925Z,6.07
2022-12-28T04:57:03.671Z,6.07
2022-12-28T05:02:06.806Z,6.15
2022-12-28T05:07:10.956Z,6.28
2022-12-28T05:12:13.681Z,6.26
2022-12-28T05:17:16.526Z,6.39
2022-12-28T05:22:20.560Z,6.33
2022-12-28T05:27:23.336Z,6.30
2022-12-28T05:32:26.054Z,6.38
2022-12-28T05:37:30.104Z,6.32
2022-12-28T05:42:33.106Z,6.31
2022-12-28T05:47:35.840Z,6.40
2022-12-28T05:52:39.978Z,6.36
2022-12-28T05:57:42.687Z,6.49
2022-12-28T06:02:45.477Z,6.39
2022-12-28T06:07:52.751Z,6.35
2022-12-28T06:12:55.441Z,6.30
2022-12-28T06:17:58.209Z,6.37
2022-12-28T06:23:02.339Z,6.45
2022-12-28T06:28:05.554Z,6.54
2022-12-28T06:33:08.278Z,6.65
2022-12-28T06:38:12.342Z,6.63
2022-12-28T06:43:15.098Z,6.61
2022-12-28T06:48:17.813Z,6.63
2022-12-28T06:53:21.955Z,6.66
2022-12-28T06:58:25.193Z,6.78
2022-12-28T07:03:27.917Z,6.89
2022-12-28T07:08:32.417Z,6.82
2022-12-28T07:13:35.311Z,6.90
2022-12-28T07:18:38.723Z,6.84
2022-12-28T07:23:43.007Z,6.95
2022-12-28T07:28:46.695Z,6.84
2022-12-28T07:33:50.272Z,6.79
2022-12-28T07:38:54.503Z,6.76
2022-12-28T07:43:57.415Z,6.88
2022-12-28T07:49:00.862Z,6.94
2022-12-28T07:54:05.922Z,6.89
2022-12-28T07:59:08.704Z,6.89
2022-12-28T08:04:14.120Z,6.85
2022-12-28T08:09:18.191Z,6.82
2022-12-28T08:14:20.893Z,6.89
2022-12-28T08:19:23.618Z,6.87
2022-12-28T08:24:27.771Z,6.88
2022-12-28T08:29:30.762Z,6.89
2022-12-28T08:34:33.460Z,6.93
2022-12-28T08:39:37.529Z,6.97
2022-12-28T08:44:40.257Z,7.02
2022-12-28T08:49:44.440Z,6.97
2022-12-28T08:54:48.503Z,7.42
2022-12-28T08:59:51.181Z,7.55
2022-12-28T09:04:53.925Z,7.54
2022-12-28T09:09:58.222Z,7.68
2022-12-28T09:15:00.890Z,7.66
2022-12-28T09:20:03.819Z,7.66
2022-12-28T09:25:08.513Z,7.74
2022-12-28T09:30:12.187Z,7.71
2022-12-28T09:35:15.017Z,7.66
2022-12-28T09:40:19.071Z,7.65
2022-12-28T09:45:23.389Z,7.66
2022-12-28T09:50:29.998Z,7.64
2022-12-28T09:55:35.603Z,7.75
2022-12-28T10:00:43.126Z,7.81
2022-12-28T10:05:46.254Z,7.82
2022-12-28T10:10:51.723Z,7.89
2022-12-28T10:15:54.562Z,7.94
2022-12-28T10:20:57.496Z,7.92
2022-12-28T10:26:03.600Z,7.97
2022-12-28T10:31:09.635Z,8.07
2022-12-28T10:36:14.585Z,8.08
2022-12-28T10:41:20.049Z,8.04
2022-12-28T10:46:24.233Z,8.16
2022-12-28T10:51:28.848Z,8.24
2022-12-28T10:56:33.700Z,8.17
2022-12-28T11:01:36.512Z,8.16
2022-12-28T11:06:52.507Z,8.22
2022-12-28T11:11:58.286Z,8.30
2022-12-28T11:17:13.791Z,8.31
2022-12-28T11:22:18.841Z,8.38
2022-12-28T11:27:24.380Z,8.36
2022-12-28T11:32:28.844Z,8.48
2022-12-28T11:37:31.561Z,8.46
2022-12-28T11:42:59.810Z,8.57
2022-12-28T11:48:42.796Z,8.52
2022-12-28T11:53:54.508Z,8.53
2022-12-28T11:59:22.539Z,8.51
2022-12-28T12:04:34.226Z,8.54
2022-12-28T12:09:45.157Z,8.56
2022-12-28T12:14:50.389Z,8.54
2022-12-28T12:19:55.356Z,8.59
2022-12-28T12:25:02.858Z,8.68
2022-12-28T12:30:13.374Z,8.61
2022-12-28T12:35:18.036Z,8.70
2022-12-28T12:40:50.612Z,8.77
2022-12-28T12:46:05.146Z,8.72
2022-12-28T12:51:29.656Z,8.74
2022-12-28T12:56:41.899Z,8.74
2022-12-28T13:01:52.653Z,8.71
2022-12-28T13:06:58.339Z,8.73
2022-12-28T13:12:01.822Z,8.72
2022-12-28T13:17:07.121Z,8.68
2022-12-28T13:22:27.410Z,8.71
2022-12-28T13:27:33.163Z,8.77
2022-12-28T13:32:38.686Z,8.78
2022-12-28T13:37:41.558Z,8.77
2022-12-28T13:42:51.045Z,8.80
2022-12-28T13:47:56.417Z,8.80
2022-12-28T13:53:02.006Z,8.77
2022-12-28T13:58:08.892Z,8.75
2022-12-28T14:03:14.070Z,8.84
2022-12-28T14:08:17.598Z,8.72
2022-12-28T14:13:20.889Z,8.69
2022-12-28T14:18:25.549Z,8.63
2022-12-28T14:23:29.765Z,8.59
2022-12-28T14:28:36.153Z,8.52
2022-12-28T14:33:41.944Z,8.55
2022-12-28T14:38:47.721Z,8.49
2022-12-28T14:43:53.225Z,8.39
2022-12-28T14:48:57.364Z,8.39
2022-12-28T14:54:21.515Z,8.33
2022-12-28T14:59:27.748Z,8.31
2022-12-28T15:04:38.624Z,8.33
2022-12-28T15:09:41.361Z,8.26
2022-12-28T15:14:44.298Z,8.25
2022-12-28T15:19:48.343Z,8.18
2022-12-28T15:24:51.028Z,8.16
2022-12-28T15:30:05.610Z,8.19
2022-12-28T15:35:10.720Z,8.22
2022-12-28T15:40:13.475Z,8.20
2022-12-28T15:45:17.191Z,8.27
2022-12-28T15:50:21.591Z,8.25
2022-12-28T15:55:24.306Z,8.19
2022-12-28T16:00:26.997Z,8.23
2022-12-28T16:05:32.394Z,8.22
2022-12-28T16:10:35.186Z,8.19
2022-12-28T16:15:37.996Z,8.15
2022-12-28T16:20:42.035Z,8.15
2022-12-28T16:25:50.699Z,8.10
2022-12-28T16:30:53.971Z,8.25
2022-12-28T16:35:59.955Z,8.10
2022-12-28T16:41:02.827Z,8.17
2022-12-28T16:46:07.234Z,8.09
2022-12-28T16:51:12.738Z,8.16
2022-12-28T16:56:15.601Z,8.07
2022-12-28T17:01:18.467Z,8.13
2022-12-28T17:06:22.602Z,8.07
2022-12-28T17:11:25.341Z,8.13
2022-12-28T17:16:28.753Z,8.08
2022-12-28T17:21:33.602Z,8.10
2022-12-28T17:26:36.404Z,8.22
2022-12-28T17:31:39.093Z,8.24
2022-12-28T17:36:43.370Z,8.15
2022-12-28T17:41:46.228Z,8.22
2022-12-28T17:46:48.915Z,8.19
2022-12-28T17:51:52.980Z,8.16
2022-12-28T17:56:55.682Z,8.31
2022-12-28T18:02:01.151Z,8.31
2022-12-28T18:07:05.710Z,8.32
2022-12-28T18:12:08.668Z,8.35
2022-12-28T18:17:11.450Z,8.33
2022-12-28T18:22:15.494Z,8.24
2022-12-28T18:27:18.410Z,8.25
2022-12-28T18:32:21.183Z,8.29
2022-12-28T18:37:25.255Z,8.22
2022-12-28T18:42:28.116Z,8.36
2022-12-28T18:47:32.936Z,8.18
2022-12-28T18:52:37.039Z,8.12
2022-12-28T18:57:39.860Z,8.16
2022-12-28T19:02:42.767Z,8.16
2022-12-28T19:07:49.549Z,8.13
2022-12-28T19:12:52.435Z,8.10
2022-12-28T19:17:55.204Z,8.01
2022-12-28T19:22:59.250Z,8.20
2022-12-28T19:28:01.971Z,8.13
2022-12-28T19:33:04.758Z,8.15
2022-12-28T19:38:08.852Z,8.05
2022-12-28T19:43:11.538Z,8.09
2022-12-28T19:48:18.204Z,8.02
2022-12-28T19:53:22.495Z,8.02
2022-12-28T19:58:25.512Z,8.06
2022-12-28T20:03:28.285Z,8.03
2022-12-28T20:08:32.533Z,7.93
2022-12-28T20:13:35.437Z,7.97
2022-12-28T20:18:38.167Z,7.96
2022-12-28T20:23:42.660Z,7.91
2022-12-28T20:28:46.262Z,7.98
2022-12-28T20:33:50.101Z,7.95
2022-12-28T20:38:54.656Z,7.92
2022-12-28T20:44:00.235Z,7.94
2022-12-28T20:49:03.351Z,7.97
2022-12-28T20:54:10.506Z,8.07
2022-12-28T20:59:14.479Z,8.03
2022-12-28T21:04:17.265Z,8.10
2022-12-28T21:09:21.814Z,8.07
2022-12-28T21:14:24.615Z,8.12
2022-12-28T21:19:27.340Z,8.11
2022-12-28T21:24:31.442Z,8.17
2022-12-28T21:29:34.173Z,8.34
2022-12-28T21:34:36.888Z,8.44
2022-12-28T21:39:40.967Z,8.53
2022-12-28T21:44:43.673Z,8.47
2022-12-28T21:49:46.368Z,8.52
2022-12-28T21:54:50.483Z,8.57
2022-12-28T21:59:55.003Z,8.68
2022-12-28T22:05:15.234Z,8.57
2022-12-28T22:10:36.691Z,8.62
2022-12-28T22:15:54.405Z,8.80
2022-12-28T22:20:57.124Z,8.75
2022-12-28T22:26:01.252Z,8.76
2022-12-28T22:31:05.098Z,8.70
2022-12-28T22:36:12.241Z,8.76
2022-12-28T22:41:16.331Z,8.76
2022-12-28T22:46:19.478Z,8.79
2022-12-28T22:51:23.308Z,8.82
2022-12-28T22:56:27.398Z,8.78
2022-12-28T23:01:30.202Z,8.79
2022-12-28T23:06:33.414Z,8.76
2022-12-28T23:11:37.552Z,8.86
2022-12-28T23:16:40.312Z,8.91
2022-12-28T23:22:00.355Z,8.91
2022-12-28T23:27:23.085Z,9.00
2022-12-28T23:32:25.855Z,9.02
2022-12-28T23:37:28.604Z,9.03
2022-12-28T23:42:32.687Z,9.16
2022-12-28T23:47:35.763Z,9.19
2022-12-28T23:52:38.639Z,9.10
2022-12-28T23:57:42.905Z,9.13
